sensor_id;sensor_type;location;lat;lon;timestamp;temperature;humidity
54168;DHT22;68429;50.958;3.592;2023-07-09T00:02:14;21.90;99.90
54168;DHT22;68429;50.958;3.592;2023-07-09T00:04:40;21.80;99.90
54168;DHT22;68429;50.958;3.592;2023-07-09T00:07:16;21.60;99.90
54168;DHT22;68429;50.958;3.592;2023-07-09T00:09:42;21.60;99.90
54168;DHT22;68429;50.958;3.592;2023-07-09T00:12:16;21.50;99.90
54168;DHT22;68429;50.958;3.592;2023-07-09T00:14:42;21.40;99.90
54168;DHT22;68429;50.958;3.592;2023-07-09T00:17:10;21.50;99.90
54168;DHT22;68429;50.958;3.592;2023-07-09T00:19:36;21.40;99.90
54168;DHT22;68429;50.958;3.592;2023-07-09T00:22:02;21.30;99.90
54168;DHT22;68429;50.958;3.592;2023-07-09T00:24:28;21.30;99.90
54168;DHT22;68429;50.958;3.592;2023-07-09T00:26:54;21.40;99.90
54168;DHT22;68429;50.958;3.592;2023-07-09T00:29:19;21.40;99.90
54168;DHT22;68429;50.958;3.592;2023-07-09T00:31:45;21.30;99.90
54168;DHT22;68429;50.958;3.592;2023-07-09T00:34:15;21.40;99.90
54168;DHT22;68429;50.958;3.592;2023-07-09T00:36:43;21.30;99.90
54168;DHT22;68429;50.958;3.592;2023-07-09T00:39:17;21.40;99.90
54168;DHT22;68429;50.958;3.592;2023-07-09T00:41:44;21.30;99.90
54168;DHT22;68429;50.958;3.592;2023-07-09T00:44:22;21.60;99.90
54168;DHT22;68429;50.958;3.592;2023-07-09T00:49:29;21.50;99.90
54168;DHT22;68429;50.958;3.592;2023-07-09T00:51:58;21.40;99.90
54168;DHT22;68429;50.958;3.592;2023-07-09T00:54:28;21.50;99.90
54168;DHT22;68429;50.958;3.592;2023-07-09T00:56:59;21.50;99.90
54168;DHT22;68429;50.958;3.592;2023-07-09T00:59:27;21.40;99.90
54168;DHT22;68429;50.958;3.592;2023-07-09T01:01:57;21.40;99.90
54168;DHT22;68429;50.958;3.592;2023-07-09T01:04:26;21.30;99.90
54168;DHT22;68429;50.958;3.592;2023-07-09T01:06:54;21.30;99.90
54168;DHT22;68429;50.958;3.592;2023-07-09T01:09:22;21.20;99.90
54168;DHT22;68429;50.958;3.592;2023-07-09T01:11:48;21.10;99.90
54168;DHT22;68429;50.958;3.592;2023-07-09T01:14:16;21.10;99.90
54168;DHT22;68429;50.958;3.592;2023-07-09T01:16:48;21.10;99.90
54168;DHT22;68429;50.958;3.592;2023-07-09T01:19:15;21.00;99.90
54168;DHT22;68429;50.958;3.592;2023-07-09T01:21:42;21.00;99.90
54168;DHT22;68429;50.958;3.592;2023-07-09T01:24:45;21.10;99.90
54168;DHT22;68429;50.958;3.592;2023-07-09T01:27:02;21.10;99.90
54168;DHT22;68429;50.958;3.592;2023-07-09T01:29:31;21.00;99.90
54168;DHT22;68429;50.958;3.592;2023-07-09T01:31:59;21.10;99.90
54168;DHT22;68429;50.958;3.592;2023-07-09T01:34:25;21.10;99.90
54168;DHT22;68429;50.958;3.592;2023-07-09T01:36:51;21.00;99.90
54168;DHT22;68429;50.958;3.592;2023-07-09T01:39:17;20.80;99.90
54168;DHT22;68429;50.958;3.592;2023-07-09T01:41:44;20.90;99.90
54168;DHT22;68429;50.958;3.592;2023-07-09T01:44:13;20.80;99.90
54168;DHT22;68429;50.958;3.592;2023-07-09T01:46:39;20.80;99.90
54168;DHT22;68429;50.958;3.592;2023-07-09T01:49:05;20.80;99.90
54168;DHT22;68429;50.958;3.592;2023-07-09T01:51:33;20.70;99.90
54168;DHT22;68429;50.958;3.592;2023-07-09T01:53:59;20.60;99.90
54168;DHT22;68429;50.958;3.592;2023-07-09T01:56:25;20.40;99.90
54168;DHT22;68429;50.958;3.592;2023-07-09T01:58:51;20.40;99.90
54168;DHT22;68429;50.958;3.592;2023-07-09T02:01:17;20.30;99.90
54168;DHT22;68429;50.958;3.592;2023-07-09T02:03:45;20.40;99.90
54168;DHT22;68429;50.958;3.592;2023-07-09T02:06:11;20.40;99.90
54168;DHT22;68429;50.958;3.592;2023-07-09T02:08:37;20.50;99.90
54168;DHT22;68429;50.958;3.592;2023-07-09T02:11:03;20.60;99.90
54168;DHT22;68429;50.958;3.592;2023-07-09T02:13:29;20.60;99.90
54168;DHT22;68429;50.958;3.592;2023-07-09T02:15:54;20.60;99.90
54168;DHT22;68429;50.958;3.592;2023-07-09T02:18:20;20.50;99.90
54168;DHT22;68429;50.958;3.592;2023-07-09T02:20:46;20.40;99.90
54168;DHT22;68429;50.958;3.592;2023-07-09T02:23:12;20.50;99.90
54168;DHT22;68429;50.958;3.592;2023-07-09T02:25:38;20.30;99.90
54168;DHT22;68429;50.958;3.592;2023-07-09T02:28:04;20.20;99.90
54168;DHT22;68429;50.958;3.592;2023-07-09T02:30:29;20.20;99.90
54168;DHT22;68429;50.958;3.592;2023-07-09T02:32:55;20.10;99.90
54168;DHT22;68429;50.958;3.592;2023-07-09T02:35:22;19.80;99.90
54168;DHT22;68429;50.958;3.592;2023-07-09T02:37:47;19.70;99.90
54168;DHT22;68429;50.958;3.592;2023-07-09T02:40:14;19.80;99.90
54168;DHT22;68429;50.958;3.592;2023-07-09T02:42:40;19.70;99.90
54168;DHT22;68429;50.958;3.592;2023-07-09T02:45:06;19.30;99.90
54168;DHT22;68429;50.958;3.592;2023-07-09T02:47:32;19.30;99.90
54168;DHT22;68429;50.958;3.592;2023-07-09T02:49:57;19.40;99.90
54168;DHT22;68429;50.958;3.592;2023-07-09T02:52:23;19.40;99.90
54168;DHT22;68429;50.958;3.592;2023-07-09T02:54:49;19.30;99.90
54168;DHT22;68429;50.958;3.592;2023-07-09T02:57:15;19.40;99.90
54168;DHT22;68429;50.958;3.592;2023-07-09T02:59:40;19.60;99.90
54168;DHT22;68429;50.958;3.592;2023-07-09T03:02:06;19.50;99.90
54168;DHT22;68429;50.958;3.592;2023-07-09T03:04:32;19.40;99.90
54168;DHT22;68429;50.958;3.592;2023-07-09T03:06:58;19.10;99.90
54168;DHT22;68429;50.958;3.592;2023-07-09T03:09:25;19.20;99.90
54168;DHT22;68429;50.958;3.592;2023-07-09T03:11:52;19.30;99.90
54168;DHT22;68429;50.958;3.592;2023-07-09T03:14:17;19.40;99.90
54168;DHT22;68429;50.958;3.592;2023-07-09T03:16:43;19.40;99.90
54168;DHT22;68429;50.958;3.592;2023-07-09T03:19:10;19.30;99.90
54168;DHT22;68429;50.958;3.592;2023-07-09T03:21:35;19.40;99.90
54168;DHT22;68429;50.958;3.592;2023-07-09T03:24:01;19.40;99.90
54168;DHT22;68429;50.958;3.592;2023-07-09T03:26:27;19.40;99.90
54168;DHT22;68429;50.958;3.592;2023-07-09T03:28:53;19.40;99.90
54168;DHT22;68429;50.958;3.592;2023-07-09T03:31:19;19.30;99.90
54168;DHT22;68429;50.958;3.592;2023-07-09T03:33:50;19.20;99.90
54168;DHT22;68429;50.958;3.592;2023-07-09T03:36:16;19.20;99.90
54168;DHT22;68429;50.958;3.592;2023-07-09T03:38:42;19.10;99.90
54168;DHT22;68429;50.958;3.592;2023-07-09T03:41:08;19.10;99.90
54168;DHT22;68429;50.958;3.592;2023-07-09T03:43:33;19.10;99.90
54168;DHT22;68429;50.958;3.592;2023-07-09T03:45:59;19.20;99.90
54168;DHT22;68429;50.958;3.592;2023-07-09T03:48:25;19.20;99.90
54168;DHT22;68429;50.958;3.592;2023-07-09T03:50:50;19.20;99.90
54168;DHT22;68429;50.958;3.592;2023-07-09T03:53:17;19.10;99.90
54168;DHT22;68429;50.958;3.592;2023-07-09T03:55:45;19.00;99.90
54168;DHT22;68429;50.958;3.592;2023-07-09T03:58:11;19.00;99.90
54168;DHT22;68429;50.958;3.592;2023-07-09T04:00:37;19.00;99.90
54168;DHT22;68429;50.958;3.592;2023-07-09T04:03:03;18.90;99.90
54168;DHT22;68429;50.958;3.592;2023-07-09T04:05:29;19.00;99.90
54168;DHT22;68429;50.958;3.592;2023-07-09T04:07:54;19.00;99.90
54168;DHT22;68429;50.958;3.592;2023-07-09T04:10:21;19.10;99.90
54168;DHT22;68429;50.958;3.592;2023-07-09T04:12:47;19.10;99.90
54168;DHT22;68429;50.958;3.592;2023-07-09T04:15:13;19.10;99.90
54168;DHT22;68429;50.958;3.592;2023-07-09T04:17:39;19.10;99.90
54168;DHT22;68429;50.958;3.592;2023-07-09T04:20:07;19.20;99.90
54168;DHT22;68429;50.958;3.592;2023-07-09T04:22:33;19.20;99.90
54168;DHT22;68429;50.958;3.592;2023-07-09T04:25:00;19.30;99.90
54168;DHT22;68429;50.958;3.592;2023-07-09T04:27:26;19.30;99.90
54168;DHT22;68429;50.958;3.592;2023-07-09T04:29:53;19.40;99.90
54168;DHT22;68429;50.958;3.592;2023-07-09T04:32:19;19.50;99.90
54168;DHT22;68429;50.958;3.592;2023-07-09T04:34:45;19.40;99.90
54168;DHT22;68429;50.958;3.592;2023-07-09T04:37:11;19.50;99.90
54168;DHT22;68429;50.958;3.592;2023-07-09T04:39:42;19.60;99.90
54168;DHT22;68429;50.958;3.592;2023-07-09T04:42:14;19.60;99.90
54168;DHT22;68429;50.958;3.592;2023-07-09T04:44:40;19.60;99.90
54168;DHT22;68429;50.958;3.592;2023-07-09T04:47:06;19.50;99.90
54168;DHT22;68429;50.958;3.592;2023-07-09T04:49:32;19.50;99.90
54168;DHT22;68429;50.958;3.592;2023-07-09T04:51:58;19.60;99.90
54168;DHT22;68429;50.958;3.592;2023-07-09T04:54:25;19.80;99.90
54168;DHT22;68429;50.958;3.592;2023-07-09T04:56:51;20.00;99.90
54168;DHT22;68429;50.958;3.592;2023-07-09T04:59:16;20.10;99.90
54168;DHT22;68429;50.958;3.592;2023-07-09T05:01:42;20.30;99.90
54168;DHT22;68429;50.958;3.592;2023-07-09T05:04:07;20.40;99.90
54168;DHT22;68429;50.958;3.592;2023-07-09T05:06:34;20.40;99.90
54168;DHT22;68429;50.958;3.592;2023-07-09T05:09:00;20.60;99.90
54168;DHT22;68429;50.958;3.592;2023-07-09T05:11:25;20.80;99.90
54168;DHT22;68429;50.958;3.592;2023-07-09T05:13:51;20.80;99.90
54168;DHT22;68429;50.958;3.592;2023-07-09T05:16:17;20.90;99.90
54168;DHT22;68429;50.958;3.592;2023-07-09T05:18:45;21.00;99.90
54168;DHT22;68429;50.958;3.592;2023-07-09T05:21:11;20.80;99.90
54168;DHT22;68429;50.958;3.592;2023-07-09T05:23:37;20.60;99.90
54168;DHT22;68429;50.958;3.592;2023-07-09T05:26:03;20.50;99.90
54168;DHT22;68429;50.958;3.592;2023-07-09T05:28:30;20.50;99.90
54168;DHT22;68429;50.958;3.592;2023-07-09T05:30:55;20.60;99.90
54168;DHT22;68429;50.958;3.592;2023-07-09T05:33:22;20.70;99.90
54168;DHT22;68429;50.958;3.592;2023-07-09T05:35:48;20.70;99.90
54168;DHT22;68429;50.958;3.592;2023-07-09T05:38:14;20.80;99.90
54168;DHT22;68429;50.958;3.592;2023-07-09T05:40:40;21.10;99.90
54168;DHT22;68429;50.958;3.592;2023-07-09T05:43:06;21.30;99.90
54168;DHT22;68429;50.958;3.592;2023-07-09T05:45:32;21.40;99.90
54168;DHT22;68429;50.958;3.592;2023-07-09T05:47:59;21.40;99.90
54168;DHT22;68429;50.958;3.592;2023-07-09T05:50:25;21.50;99.90
54168;DHT22;68429;50.958;3.592;2023-07-09T05:52:50;21.50;99.90
54168;DHT22;68429;50.958;3.592;2023-07-09T05:55:16;21.60;99.90
54168;DHT22;68429;50.958;3.592;2023-07-09T05:57:42;21.60;99.90
54168;DHT22;68429;50.958;3.592;2023-07-09T06:00:08;21.50;99.90
54168;DHT22;68429;50.958;3.592;2023-07-09T06:02:34;21.60;99.90
54168;DHT22;68429;50.958;3.592;2023-07-09T06:05:00;21.80;99.90
54168;DHT22;68429;50.958;3.592;2023-07-09T06:07:25;21.80;99.90
54168;DHT22;68429;50.958;3.592;2023-07-09T06:09:51;22.00;99.90
54168;DHT22;68429;50.958;3.592;2023-07-09T06:12:17;22.10;99.90
54168;DHT22;68429;50.958;3.592;2023-07-09T06:14:45;22.40;99.90
54168;DHT22;68429;50.958;3.592;2023-07-09T06:17:11;22.40;99.90
54168;DHT22;68429;50.958;3.592;2023-07-09T06:19:37;22.40;99.90
54168;DHT22;68429;50.958;3.592;2023-07-09T06:22:03;22.50;99.90
54168;DHT22;68429;50.958;3.592;2023-07-09T06:24:29;22.90;99.90
54168;DHT22;68429;50.958;3.592;2023-07-09T06:26:55;23.30;99.90
54168;DHT22;68429;50.958;3.592;2023-07-09T06:29:20;24.30;99.90
54168;DHT22;68429;50.958;3.592;2023-07-09T06:31:46;24.80;99.90
54168;DHT22;68429;50.958;3.592;2023-07-09T06:34:12;24.80;99.90
54168;DHT22;68429;50.958;3.592;2023-07-09T06:36:38;24.50;99.90
54168;DHT22;68429;50.958;3.592;2023-07-09T06:39:04;24.50;99.90
54168;DHT22;68429;50.958;3.592;2023-07-09T06:41:31;24.60;99.90
54168;DHT22;68429;50.958;3.592;2023-07-09T06:43:58;24.90;99.90
54168;DHT22;68429;50.958;3.592;2023-07-09T06:46:23;24.90;99.90
54168;DHT22;68429;50.958;3.592;2023-07-09T06:48:49;24.90;99.90
54168;DHT22;68429;50.958;3.592;2023-07-09T06:51:15;24.90;99.90
54168;DHT22;68429;50.958;3.592;2023-07-09T06:53:42;24.70;99.90
54168;DHT22;68429;50.958;3.592;2023-07-09T06:56:09;24.60;99.90
54168;DHT22;68429;50.958;3.592;2023-07-09T06:58:36;24.60;99.90
54168;DHT22;68429;50.958;3.592;2023-07-09T07:01:03;24.60;99.90
54168;DHT22;68429;50.958;3.592;2023-07-09T07:03:31;24.80;99.90
54168;DHT22;68429;50.958;3.592;2023-07-09T07:05:58;24.90;99.90
54168;DHT22;68429;50.958;3.592;2023-07-09T07:08:25;24.90;99.90
54168;DHT22;68429;50.958;3.592;2023-07-09T07:10:56;24.50;99.90
54168;DHT22;68429;50.958;3.592;2023-07-09T07:13:48;24.40;99.90
54168;DHT22;68429;50.958;3.592;2023-07-09T07:16:16;24.30;99.90
54168;DHT22;68429;50.958;3.592;2023-07-09T07:18:42;24.60;99.90
54168;DHT22;68429;50.958;3.592;2023-07-09T07:21:08;24.70;99.90
54168;DHT22;68429;50.958;3.592;2023-07-09T07:23:33;24.80;99.90
54168;DHT22;68429;50.958;3.592;2023-07-09T07:25:59;25.10;99.90
54168;DHT22;68429;50.958;3.592;2023-07-09T07:28:25;25.10;99.90
54168;DHT22;68429;50.958;3.592;2023-07-09T07:31:05;25.50;99.90
54168;DHT22;68429;50.958;3.592;2023-07-09T07:33:33;25.50;99.90
54168;DHT22;68429;50.958;3.592;2023-07-09T07:35:59;25.90;99.90
54168;DHT22;68429;50.958;3.592;2023-07-09T07:38:25;25.80;99.90
54168;DHT22;68429;50.958;3.592;2023-07-09T07:40:50;26.00;99.90
54168;DHT22;68429;50.958;3.592;2023-07-09T07:43:16;26.00;99.90
54168;DHT22;68429;50.958;3.592;2023-07-09T07:45:43;25.90;99.90
54168;DHT22;68429;50.958;3.592;2023-07-09T07:48:09;26.10;99.90
54168;DHT22;68429;50.958;3.592;2023-07-09T07:50:35;26.20;99.90
54168;DHT22;68429;50.958;3.592;2023-07-09T07:53:02;26.20;99.90
54168;DHT22;68429;50.958;3.592;2023-07-09T07:55:27;26.40;99.90
54168;DHT22;68429;50.958;3.592;2023-07-09T07:57:53;26.40;99.90
54168;DHT22;68429;50.958;3.592;2023-07-09T08:00:19;26.50;99.90
54168;DHT22;68429;50.958;3.592;2023-07-09T08:02:45;26.40;99.90
54168;DHT22;68429;50.958;3.592;2023-07-09T08:05:11;26.40;99.90
54168;DHT22;68429;50.958;3.592;2023-07-09T08:07:36;26.40;99.90
54168;DHT22;68429;50.958;3.592;2023-07-09T08:10:02;26.50;99.90
54168;DHT22;68429;50.958;3.592;2023-07-09T08:12:28;26.90;99.90
54168;DHT22;68429;50.958;3.592;2023-07-09T08:14:53;27.00;99.90
54168;DHT22;68429;50.958;3.592;2023-07-09T08:17:19;27.10;99.90
54168;DHT22;68429;50.958;3.592;2023-07-09T08:19:52;27.10;99.90
54168;DHT22;68429;50.958;3.592;2023-07-09T08:22:19;27.30;99.90
54168;DHT22;68429;50.958;3.592;2023-07-09T08:24:47;27.50;99.90
54168;DHT22;68429;50.958;3.592;2023-07-09T08:27:13;27.50;99.90
54168;DHT22;68429;50.958;3.592;2023-07-09T08:29:39;27.70;99.90
54168;DHT22;68429;50.958;3.592;2023-07-09T08:32:08;27.60;99.90
54168;DHT22;68429;50.958;3.592;2023-07-09T08:34:33;27.70;99.90
54168;DHT22;68429;50.958;3.592;2023-07-09T08:36:59;27.80;99.90
54168;DHT22;68429;50.958;3.592;2023-07-09T08:39:25;27.90;99.90
54168;DHT22;68429;50.958;3.592;2023-07-09T08:41:59;28.20;99.90
54168;DHT22;68429;50.958;3.592;2023-07-09T08:49:46;28.10;99.90
54168;DHT22;68429;50.958;3.592;2023-07-09T08:52:36;28.30;99.90
54168;DHT22;68429;50.958;3.592;2023-07-09T08:55:12;28.40;99.90
54168;DHT22;68429;50.958;3.592;2023-07-09T08:57:41;28.50;99.90
54168;DHT22;68429;50.958;3.592;2023-07-09T09:02:55;29.00;99.60
54168;DHT22;68429;50.958;3.592;2023-07-09T09:05:22;29.50;99.10
54168;DHT22;68429;50.958;3.592;2023-07-09T09:08:04;29.60;98.70
54168;DHT22;68429;50.958;3.592;2023-07-09T09:13:28;29.70;98.00
54168;DHT22;68429;50.958;3.592;2023-07-09T09:16:06;30.20;97.50
54168;DHT22;68429;50.958;3.592;2023-07-09T09:18:41;30.30;97.70
54168;DHT22;68429;50.958;3.592;2023-07-09T09:21:34;30.10;98.20
54168;DHT22;68429;50.958;3.592;2023-07-09T09:24:17;30.10;97.40
54168;DHT22;68429;50.958;3.592;2023-07-09T09:26:45;30.00;97.40
54168;DHT22;68429;50.958;3.592;2023-07-09T09:29:14;29.70;97.70
54168;DHT22;68429;50.958;3.592;2023-07-09T09:31:45;29.40;97.80
54168;DHT22;68429;50.958;3.592;2023-07-09T09:34:27;29.20;98.30
54168;DHT22;68429;50.958;3.592;2023-07-09T09:36:54;29.40;98.40
54168;DHT22;68429;50.958;3.592;2023-07-09T09:39:22;29.30;98.30
54168;DHT22;68429;50.958;3.592;2023-07-09T09:41:48;29.30;98.40
54168;DHT22;68429;50.958;3.592;2023-07-09T09:44:19;29.10;98.70
54168;DHT22;68429;50.958;3.592;2023-07-09T09:46:47;28.90;98.80
54168;DHT22;68429;50.958;3.592;2023-07-09T09:49:13;28.60;99.00
54168;DHT22;68429;50.958;3.592;2023-07-09T09:51:40;28.00;99.80
54168;DHT22;68429;50.958;3.592;2023-07-09T09:54:17;27.80;99.90
54168;DHT22;68429;50.958;3.592;2023-07-09T09:56:43;27.40;99.90
54168;DHT22;68429;50.958;3.592;2023-07-09T09:59:27;27.20;99.90
54168;DHT22;68429;50.958;3.592;2023-07-09T10:02:00;27.00;99.90
54168;DHT22;68429;50.958;3.592;2023-07-09T10:04:27;26.80;99.90
54168;DHT22;68429;50.958;3.592;2023-07-09T10:06:56;26.50;99.90
54168;DHT22;68429;50.958;3.592;2023-07-09T10:12:13;26.00;99.90
54168;DHT22;68429;50.958;3.592;2023-07-09T10:14:51;25.90;99.90
54168;DHT22;68429;50.958;3.592;2023-07-09T10:17:45;25.90;99.90
54168;DHT22;68429;50.958;3.592;2023-07-09T10:20:26;25.70;99.90
54168;DHT22;68429;50.958;3.592;2023-07-09T10:23:14;25.70;99.90
54168;DHT22;68429;50.958;3.592;2023-07-09T10:26:01;25.60;99.90
54168;DHT22;68429;50.958;3.592;2023-07-09T10:31:03;25.50;99.90
54168;DHT22;68429;50.958;3.592;2023-07-09T10:39:40;25.40;99.90
54168;DHT22;68429;50.958;3.592;2023-07-09T10:45:03;25.60;99.90
54168;DHT22;68429;50.958;3.592;2023-07-09T10:47:36;26.00;99.90
54168;DHT22;68429;50.958;3.592;2023-07-09T10:50:06;26.80;99.90
54168;DHT22;68429;50.958;3.592;2023-07-09T10:52:37;27.10;99.90
54168;DHT22;68429;50.958;3.592;2023-07-09T10:55:16;28.00;99.90
54168;DHT22;68429;50.958;3.592;2023-07-09T10:57:56;29.10;99.90
54168;DHT22;68429;50.958;3.592;2023-07-09T11:00:33;29.30;99.90
54168;DHT22;68429;50.958;3.592;2023-07-09T11:03:05;30.40;99.20
54168;DHT22;68429;50.958;3.592;2023-07-09T11:05:35;30.10;99.00
54168;DHT22;68429;50.958;3.592;2023-07-09T11:08:15;29.80;99.00
54168;DHT22;68429;50.958;3.592;2023-07-09T11:11:03;30.10;99.30
54168;DHT22;68429;50.958;3.592;2023-07-09T11:16:06;30.80;99.10
54168;DHT22;68429;50.958;3.592;2023-07-09T11:18:34;30.70;98.90
54168;DHT22;68429;50.958;3.592;2023-07-09T11:21:16;30.70;98.40
54168;DHT22;68429;50.958;3.592;2023-07-09T11:23:50;30.90;98.10
54168;DHT22;68429;50.958;3.592;2023-07-09T11:28:52;30.10;98.90
54168;DHT22;68429;50.958;3.592;2023-07-09T11:31:31;29.80;99.40
54168;DHT22;68429;50.958;3.592;2023-07-09T11:34:02;29.20;99.40
54168;DHT22;68429;50.958;3.592;2023-07-09T11:36:30;29.00;99.90
54168;DHT22;68429;50.958;3.592;2023-07-09T11:38:57;28.50;99.90
54168;DHT22;68429;50.958;3.592;2023-07-09T11:41:43;28.20;99.90
54168;DHT22;68429;50.958;3.592;2023-07-09T11:46:58;28.30;99.90
54168;DHT22;68429;50.958;3.592;2023-07-09T11:49:28;27.90;99.90
54168;DHT22;68429;50.958;3.592;2023-07-09T11:52:00;27.70;99.90
54168;DHT22;68429;50.958;3.592;2023-07-09T11:54:27;27.20;99.90
54168;DHT22;68429;50.958;3.592;2023-07-09T11:56:57;27.20;99.90
54168;DHT22;68429;50.958;3.592;2023-07-09T11:59:24;27.10;99.90
54168;DHT22;68429;50.958;3.592;2023-07-09T12:01:51;26.90;99.90
54168;DHT22;68429;50.958;3.592;2023-07-09T12:04:22;26.70;99.90
54168;DHT22;68429;50.958;3.592;2023-07-09T12:06:51;26.70;99.90
54168;DHT22;68429;50.958;3.592;2023-07-09T12:09:18;26.70;99.90
54168;DHT22;68429;50.958;3.592;2023-07-09T12:11:46;26.50;99.90
54168;DHT22;68429;50.958;3.592;2023-07-09T12:14:16;26.30;99.90
54168;DHT22;68429;50.958;3.592;2023-07-09T12:16:45;26.00;99.90
54168;DHT22;68429;50.958;3.592;2023-07-09T12:19:13;25.70;99.90
54168;DHT22;68429;50.958;3.592;2023-07-09T12:21:41;25.60;99.90
54168;DHT22;68429;50.958;3.592;2023-07-09T12:24:29;25.70;99.90
54168;DHT22;68429;50.958;3.592;2023-07-09T12:27:01;25.70;99.90
54168;DHT22;68429;50.958;3.592;2023-07-09T12:29:36;25.50;99.90
54168;DHT22;68429;50.958;3.592;2023-07-09T12:32:16;25.50;99.90
54168;DHT22;68429;50.958;3.592;2023-07-09T12:34:42;25.20;99.90
54168;DHT22;68429;50.958;3.592;2023-07-09T12:37:19;24.60;99.90
54168;DHT22;68429;50.958;3.592;2023-07-09T12:39:47;24.40;99.90
54168;DHT22;68429;50.958;3.592;2023-07-09T12:42:30;23.40;99.90
54168;DHT22;68429;50.958;3.592;2023-07-09T12:44:57;23.00;99.90
54168;DHT22;68429;50.958;3.592;2023-07-09T12:47:24;22.90;99.90
54168;DHT22;68429;50.958;3.592;2023-07-09T12:49:50;23.00;99.90
54168;DHT22;68429;50.958;3.592;2023-07-09T12:52:23;22.80;99.90
54168;DHT22;68429;50.958;3.592;2023-07-09T12:55:01;22.60;99.90
54168;DHT22;68429;50.958;3.592;2023-07-09T12:57:28;22.60;99.90
54168;DHT22;68429;50.958;3.592;2023-07-09T12:59:55;22.80;99.90
54168;DHT22;68429;50.958;3.592;2023-07-09T13:02:23;23.00;99.90
54168;DHT22;68429;50.958;3.592;2023-07-09T13:04:50;23.10;99.90
54168;DHT22;68429;50.958;3.592;2023-07-09T13:09:53;23.50;99.90
54168;DHT22;68429;50.958;3.592;2023-07-09T13:12:20;23.60;99.90
54168;DHT22;68429;50.958;3.592;2023-07-09T13:14:53;23.40;99.90
54168;DHT22;68429;50.958;3.592;2023-07-09T13:17:19;23.30;99.90
54168;DHT22;68429;50.958;3.592;2023-07-09T13:19:45;23.40;99.90
54168;DHT22;68429;50.958;3.592;2023-07-09T13:22:16;23.50;99.90
54168;DHT22;68429;50.958;3.592;2023-07-09T13:24:42;23.60;99.90
54168;DHT22;68429;50.958;3.592;2023-07-09T13:27:15;23.50;99.90
54168;DHT22;68429;50.958;3.592;2023-07-09T13:29:41;23.50;99.90
54168;DHT22;68429;50.958;3.592;2023-07-09T13:32:10;23.40;99.90
54168;DHT22;68429;50.958;3.592;2023-07-09T13:34:37;23.40;99.90
54168;DHT22;68429;50.958;3.592;2023-07-09T13:37:04;23.60;99.90
54168;DHT22;68429;50.958;3.592;2023-07-09T13:39:30;23.70;99.90
54168;DHT22;68429;50.958;3.592;2023-07-09T13:41:56;24.00;99.90
54168;DHT22;68429;50.958;3.592;2023-07-09T13:44:30;24.00;99.90
54168;DHT22;68429;50.958;3.592;2023-07-09T13:46:58;24.00;99.90
54168;DHT22;68429;50.958;3.592;2023-07-09T13:49:26;24.10;99.90
54168;DHT22;68429;50.958;3.592;2023-07-09T13:51:56;24.30;99.90
54168;DHT22;68429;50.958;3.592;2023-07-09T13:54:29;24.60;99.90
54168;DHT22;68429;50.958;3.592;2023-07-09T13:57:02;24.50;99.90
54168;DHT22;68429;50.958;3.592;2023-07-09T13:59:29;24.60;99.90
54168;DHT22;68429;50.958;3.592;2023-07-09T14:01:56;24.60;99.90
54168;DHT22;68429;50.958;3.592;2023-07-09T14:04:24;24.50;99.90
54168;DHT22;68429;50.958;3.592;2023-07-09T14:06:49;24.40;99.90
54168;DHT22;68429;50.958;3.592;2023-07-09T14:09:16;24.80;99.90
54168;DHT22;68429;50.958;3.592;2023-07-09T14:11:52;25.50;99.90
54168;DHT22;68429;50.958;3.592;2023-07-09T14:14:24;26.30;99.90
54168;DHT22;68429;50.958;3.592;2023-07-09T14:16:50;26.60;99.90
54168;DHT22;68429;50.958;3.592;2023-07-09T14:19:21;26.60;99.90
54168;DHT22;68429;50.958;3.592;2023-07-09T14:21:48;26.50;99.90
54168;DHT22;68429;50.958;3.592;2023-07-09T14:24:18;27.40;99.90
54168;DHT22;68429;50.958;3.592;2023-07-09T14:26:44;28.00;99.90
54168;DHT22;68429;50.958;3.592;2023-07-09T14:29:12;28.20;99.90
54168;DHT22;68429;50.958;3.592;2023-07-09T14:31:39;28.40;99.90
54168;DHT22;68429;50.958;3.592;2023-07-09T14:34:19;28.20;99.90
54168;DHT22;68429;50.958;3.592;2023-07-09T14:36:46;28.00;99.90
54168;DHT22;68429;50.958;3.592;2023-07-09T14:39:12;28.20;99.90
54168;DHT22;68429;50.958;3.592;2023-07-09T14:41:38;28.60;99.90
54168;DHT22;68429;50.958;3.592;2023-07-09T14:44:26;29.10;99.90
54168;DHT22;68429;50.958;3.592;2023-07-09T14:46:55;29.40;99.60
54168;DHT22;68429;50.958;3.592;2023-07-09T14:49:21;29.70;98.20
54168;DHT22;68429;50.958;3.592;2023-07-09T14:51:47;29.50;98.20
54168;DHT22;68429;50.958;3.592;2023-07-09T14:54:23;28.90;99.00
54168;DHT22;68429;50.958;3.592;2023-07-09T14:56:50;28.40;99.20
54168;DHT22;68429;50.958;3.592;2023-07-09T14:59:16;27.90;99.90
54168;DHT22;68429;50.958;3.592;2023-07-09T15:01:43;26.60;99.90
54168;DHT22;68429;50.958;3.592;2023-07-09T15:04:31;26.90;99.90
54168;DHT22;68429;50.958;3.592;2023-07-09T15:06:57;27.50;99.90
54168;DHT22;68429;50.958;3.592;2023-07-09T15:09:25;28.50;99.90
54168;DHT22;68429;50.958;3.592;2023-07-09T15:11:57;28.90;99.50
54168;DHT22;68429;50.958;3.592;2023-07-09T15:14:24;29.20;99.70
54168;DHT22;68429;50.958;3.592;2023-07-09T15:16:51;29.50;99.50
54168;DHT22;68429;50.958;3.592;2023-07-09T15:19:19;30.00;98.80
54168;DHT22;68429;50.958;3.592;2023-07-09T15:21:46;30.10;98.20
54168;DHT22;68429;50.958;3.592;2023-07-09T15:26:48;29.90;97.70
54168;DHT22;68429;50.958;3.592;2023-07-09T15:29:14;29.50;98.00
54168;DHT22;68429;50.958;3.592;2023-07-09T15:31:43;29.50;98.40
54168;DHT22;68429;50.958;3.592;2023-07-09T15:34:09;29.30;98.40
54168;DHT22;68429;50.958;3.592;2023-07-09T15:36:35;29.30;98.20
54168;DHT22;68429;50.958;3.592;2023-07-09T15:39:01;28.70;98.80
54168;DHT22;68429;50.958;3.592;2023-07-09T15:41:27;28.20;99.30
54168;DHT22;68429;50.958;3.592;2023-07-09T15:43:52;28.20;99.90
54168;DHT22;68429;50.958;3.592;2023-07-09T15:46:20;28.80;98.70
54168;DHT22;68429;50.958;3.592;2023-07-09T15:48:47;29.00;97.80
54168;DHT22;68429;50.958;3.592;2023-07-09T15:51:13;28.30;98.10
54168;DHT22;68429;50.958;3.592;2023-07-09T15:53:39;28.20;98.50
54168;DHT22;68429;50.958;3.592;2023-07-09T15:56:26;28.40;98.80
54168;DHT22;68429;50.958;3.592;2023-07-09T15:58:54;29.00;98.20
54168;DHT22;68429;50.958;3.592;2023-07-09T16:01:20;29.10;97.70
54168;DHT22;68429;50.958;3.592;2023-07-09T16:03:51;29.40;97.20
54168;DHT22;68429;50.958;3.592;2023-07-09T16:06:18;29.00;97.30
54168;DHT22;68429;50.958;3.592;2023-07-09T16:08:45;28.80;97.60
54168;DHT22;68429;50.958;3.592;2023-07-09T16:11:16;28.60;97.80
54168;DHT22;68429;50.958;3.592;2023-07-09T16:13:43;28.90;97.70
54168;DHT22;68429;50.958;3.592;2023-07-09T16:16:20;28.90;96.90
54168;DHT22;68429;50.958;3.592;2023-07-09T16:18:46;29.00;97.10
54168;DHT22;68429;50.958;3.592;2023-07-09T16:21:38;28.80;97.10